createdAt,value
2019-01-21T00:02:42.847Z,44.4
2019-01-21T00:07:39.726Z,44.4
2019-01-21T00:12:36.329Z,44.5
2019-01-21T00:17:32.938Z,44.6
2019-01-21T00:22:29.567Z,44.6
2019-01-21T00:27:26.416Z,44.7
2019-01-21T00:32:22.698Z,44.8
2019-01-21T00:37:18.986Z,44.9
2019-01-21T00:42:15.532Z,44.8
2019-01-21T00:47:12.557Z,44.9
2019-01-21T00:52:08.692Z,45
2019-01-21T00:57:05.253Z,45
2019-01-21T01:02:01.525Z,45
2019-01-21T01:06:58.330Z,45.1
2019-01-21T01:11:55.240Z,45.1
2019-01-21T01:16:51.437Z,45.1
2019-01-21T01:21:48.212Z,45.1
2019-01-21T01:26:44.988Z,45.2
2019-01-21T01:31:41.366Z,45.3
2019-01-21T01:36:38.031Z,45.3
2019-01-21T01:41:34.364Z,45.4
2019-01-21T01:46:31.486Z,45.4
2019-01-21T01:51:28.271Z,45.4
2019-01-21T01:56:24.865Z,45.4
2019-01-21T02:01:21.545Z,45.5
2019-01-21T02:06:18.343Z,45.5
2019-01-21T02:11:14.156Z,45.5
2019-01-21T02:16:11.027Z,45.5
2019-01-21T02:21:07.319Z,45.6
2019-01-21T02:26:04.064Z,45.6
2019-01-21T02:31:00.708Z,45.6
2019-01-21T02:35:57.394Z,45.6
2019-01-21T02:40:54.360Z,45.6
2019-01-21T02:45:50.768Z,45.8
2019-01-21T02:50:47.513Z,45.8
2019-01-21T02:55:44.222Z,45.8
2019-01-21T03:00:40.974Z,45.8
2019-01-21T03:05:37.603Z,45.8
2019-01-21T03:10:34.106Z,45.9
2019-01-21T03:15:30.334Z,45.9
2019-01-21T03:20:27.205Z,45.9
2019-01-21T03:25:24.014Z,45.9
2019-01-21T03:30:20.335Z,46
2019-01-21T03:35:17.242Z,45.9
2019-01-21T03:40:14.030Z,46
2019-01-21T03:45:10.689Z,46.1
2019-01-21T03:50:06.918Z,46.1
2019-01-21T03:55:03.519Z,46.1
2019-01-21T03:59:59.562Z,46.1
2019-01-21T04:04:56.361Z,46.1
2019-01-21T04:09:53.004Z,46.1
2019-01-21T04:14:49.503Z,46.1
2019-01-21T04:19:45.680Z,46.2
2019-01-21T04:24:42.539Z,46.1
2019-01-21T04:29:39.193Z,46.2
2019-01-21T04:34:35.890Z,46.2
2019-01-21T04:39:31.864Z,46.2
2019-01-21T04:44:28.673Z,46.2
2019-01-21T04:49:25.342Z,46.2
2019-01-21T04:54:21.931Z,46.3
2019-01-21T04:59:18.688Z,46.2
2019-01-21T05:04:15.416Z,46.3
2019-01-21T05:09:12.182Z,46.3
2019-01-21T05:14:08.721Z,46.4
2019-01-21T05:19:05.398Z,46.3
2019-01-21T05:24:02.072Z,46.4
2019-01-21T05:28:58.794Z,46.4
2019-01-21T05:33:55.624Z,46.4
2019-01-21T05:38:52.027Z,46.4
2019-01-21T05:43:48.728Z,46.5
2019-01-21T05:48:49.360Z,46.5
2019-01-21T05:53:45.460Z,46.4
2019-01-21T05:58:42.217Z,46.5
2019-01-21T06:03:39.023Z,46.6
2019-01-21T06:08:35.440Z,46.5
2019-01-21T06:13:32.619Z,46.5
2019-01-21T06:18:29.373Z,46.6
2019-01-21T06:23:26.097Z,46.6
2019-01-21T06:28:22.877Z,46.7
2019-01-21T06:33:19.894Z,46.6
2019-01-21T06:38:16.629Z,46.6
2019-01-21T06:43:13.407Z,46.7
2019-01-21T06:48:10.367Z,46.6
2019-01-21T06:53:07.065Z,46.7
2019-01-21T06:58:03.701Z,46.7
2019-01-21T07:03:00.531Z,46.7
2019-01-21T07:07:57.298Z,46.8
2019-01-21T07:12:53.949Z,46.8
2019-01-21T07:17:50.932Z,46.8
2019-01-21T07:22:47.476Z,46.8
2019-01-21T07:27:44.608Z,46.8
2019-01-21T07:32:41.122Z,46.8
2019-01-21T07:37:37.859Z,46.8
2019-01-21T07:42:34.603Z,46.9
2019-01-21T07:47:31.204Z,47
2019-01-21T07:52:27.956Z,46.9
2019-01-21T07:57:24.211Z,47
2019-01-21T08:02:20.944Z,46.9
2019-01-21T08:07:17.503Z,46.9
2019-01-21T08:12:14.391Z,47
2019-01-21T08:17:11.113Z,47
2019-01-21T08:22:07.828Z,47.1
2019-01-21T08:27:04.585Z,47
2019-01-21T08:32:01.148Z,47
2019-01-21T08:36:57.910Z,47.1
2019-01-21T08:41:54.056Z,47.1
2019-01-21T08:46:50.219Z,47.1
2019-01-21T08:51:46.927Z,47.1
2019-01-21T08:56:43.533Z,47.2
2019-01-21T09:01:40.335Z,47.2
2019-01-21T09:06:36.662Z,47.2
2019-01-21T09:11:33.416Z,47.2
2019-01-21T09:16:30.100Z,47.3
2019-01-21T09:21:27.069Z,47.2
2019-01-21T09:26:24.259Z,47.3
2019-01-21T09:31:21.107Z,47.3
2019-01-21T09:36:17.821Z,47.3
2019-01-21T09:41:14.377Z,47.3
2019-01-21T09:46:11.021Z,47.4
2019-01-21T09:51:07.720Z,47.5
2019-01-21T09:56:04.415Z,47.5
2019-01-21T10:01:01.166Z,47.4
2019-01-21T10:05:58.007Z,47.5
2019-01-21T10:10:54.724Z,47.5
2019-01-21T10:15:51.510Z,47.6
2019-01-21T10:20:48.320Z,47.6
2019-01-21T10:25:44.982Z,47.6
2019-01-21T10:30:41.683Z,47.6
2019-01-21T10:35:38.475Z,47.6
2019-01-21T10:40:35.373Z,47.6
2019-01-21T10:45:32.013Z,47.7
2019-01-21T10:50:28.874Z,47.7
2019-01-21T10:55:25.717Z,47.7
2019-01-21T11:00:22.583Z,47.8
2019-01-21T11:05:19.431Z,47.8
2019-01-21T11:10:15.979Z,47.8
2019-01-21T11:15:12.274Z,47.8
2019-01-21T11:20:09.144Z,47.8
2019-01-21T11:25:05.490Z,47.9
2019-01-21T11:30:02.113Z,47.9
2019-01-21T11:34:58.373Z,48
2019-01-21T11:39:54.796Z,48
2019-01-21T11:44:51.648Z,47.9
2019-01-21T11:49:48.362Z,48
2019-01-21T11:54:45.188Z,48
2019-01-21T11:59:43.321Z,48
2019-01-21T12:04:39.783Z,48
2019-01-21T12:09:36.664Z,48.1
2019-01-21T12:14:33.512Z,48
2019-01-21T12:19:30.423Z,48
2019-01-21T12:24:27.096Z,48.1
2019-01-21T12:29:23.894Z,48.1
2019-01-21T12:34:20.757Z,48.1
2019-01-21T12:39:17.416Z,48.2
2019-01-21T12:44:14.178Z,48.2
2019-01-21T12:49:10.927Z,48.2
2019-01-21T12:54:07.874Z,48.1
2019-01-21T12:59:04.700Z,48.2
2019-01-21T13:04:01.372Z,48.2
2019-01-21T13:08:57.999Z,48.2
2019-01-21T13:13:55.138Z,48.2
2019-01-21T13:18:51.715Z,48.2
2019-01-21T13:23:48.291Z,48.3
2019-01-21T13:28:45.196Z,48.3
2019-01-21T13:33:41.901Z,48.3
2019-01-21T13:38:39.267Z,48.4
2019-01-21T13:43:36.072Z,48.4
2019-01-21T13:48:33.002Z,48.4
2019-01-21T13:53:29.193Z,48.4
2019-01-21T13:58:26.138Z,48.4
2019-01-21T14:03:23.115Z,48.5
2019-01-21T14:08:19.984Z,48.4
2019-01-21T14:13:16.333Z,48.5
2019-01-21T14:18:13.044Z,48.4
2019-01-21T14:23:09.445Z,48.5
2019-01-21T14:28:06.227Z,48.4
2019-01-21T14:33:03.084Z,48.4
2019-01-21T14:37:59.959Z,48.5
2019-01-21T14:42:56.844Z,48.5
2019-01-21T14:47:53.400Z,48.5
2019-01-21T14:52:50.260Z,48.5
2019-01-21T14:57:47.034Z,48.4
2019-01-21T15:02:44.160Z,48.5
2019-01-21T15:07:40.133Z,48.5
2019-01-21T15:12:36.934Z,48.5
2019-01-21T15:17:33.533Z,48.5
2019-01-21T15:22:31.635Z,48.5
2019-01-21T15:27:28.166Z,48.5
2019-01-21T15:32:25.292Z,48.4
2019-01-21T15:37:22.137Z,48.5
2019-01-21T15:42:19.391Z,48.5
2019-01-21T15:47:16.298Z,48.5
2019-01-21T15:52:13.227Z,48.4
2019-01-21T15:57:10.039Z,48.5
2019-01-21T16:02:06.882Z,48.5
2019-01-21T16:07:03.690Z,48.5
2019-01-21T16:12:00.397Z,48.5
2019-01-21T16:16:56.713Z,48.4
2019-01-21T16:21:53.492Z,48.5
2019-01-21T16:26:50.263Z,48.5
2019-01-21T16:31:47.080Z,48.5
2019-01-21T16:36:43.671Z,48.5
2019-01-21T16:41:41.800Z,48.5
2019-01-21T16:46:38.352Z,48.4
2019-01-21T16:51:34.700Z,48.4
2019-01-21T16:56:31.451Z,48.4
2019-01-21T17:01:28.408Z,48.4
2019-01-21T17:06:25.293Z,48.4
2019-01-21T17:11:22.614Z,48.4
2019-01-21T17:16:18.944Z,48.4
2019-01-21T17:21:15.948Z,48.4
2019-01-21T17:26:12.519Z,48.5
2019-01-21T17:31:09.267Z,48.5
2019-01-21T17:36:05.926Z,48.4
2019-01-21T17:41:02.617Z,48.4
2019-01-21T17:45:59.021Z,48.4
2019-01-21T17:50:55.443Z,48.5
2019-01-21T17:55:52.331Z,48.4
2019-01-21T18:00:49.215Z,48.5
2019-01-21T18:05:45.413Z,48.5
2019-01-21T18:10:42.309Z,48.4
2019-01-21T18:15:38.569Z,48.4
2019-01-21T18:20:35.375Z,48.5
2019-01-21T18:25:33.661Z,48.4
2019-01-21T18:30:30.302Z,48.4
2019-01-21T18:35:27.013Z,48.4
2019-01-21T18:40:24.128Z,48.4
2019-01-21T18:45:24.352Z,48.5
2019-01-21T18:50:20.945Z,48.4
2019-01-21T18:55:17.756Z,48.4
2019-01-21T19:00:14.687Z,48.4
2019-01-21T19:05:11.289Z,48.4
2019-01-21T19:10:07.827Z,48.4
2019-01-21T19:15:04.456Z,48.4
2019-01-21T19:20:01.345Z,48.4
2019-01-21T19:24:58.202Z,48.4
2019-01-21T19:29:54.526Z,48.4
2019-01-21T19:34:51.363Z,48.4
2019-01-21T19:39:48.192Z,48.3
2019-01-21T19:44:44.832Z,48.4
2019-01-21T19:49:41.711Z,48.4
2019-01-21T19:54:38.184Z,48.4
2019-01-21T19:59:35.200Z,48.3
2019-01-21T20:04:31.292Z,48.4
2019-01-21T20:09:27.495Z,48.3
2019-01-21T20:14:24.162Z,48.4
2019-01-21T20:19:20.672Z,48.3
2019-01-21T20:24:17.409Z,48.3
2019-01-21T20:29:14.098Z,48.4
2019-01-21T20:34:11.048Z,48.3
2019-01-21T20:39:07.307Z,48.3
2019-01-21T20:44:03.770Z,48.3
2019-01-21T20:49:00.652Z,48.3
2019-01-21T20:53:57.466Z,48.3
2019-01-21T20:58:54.204Z,48.3
2019-01-21T21:03:50.780Z,48.3
2019-01-21T21:08:47.453Z,48.3
2019-01-21T21:13:43.919Z,48.3
2019-01-21T21:18:40.742Z,48.3
2019-01-21T21:23:37.529Z,48.3
2019-01-21T21:28:34.150Z,48.3
2019-01-21T21:33:31.018Z,48.3
2019-01-21T21:38:27.741Z,48.3
2019-01-21T21:43:24.384Z,48.3
2019-01-21T21:48:21.393Z,48.3
2019-01-21T21:53:18.208Z,48.3
2019-01-21T21:58:14.905Z,48.3
2019-01-21T22:03:11.465Z,48.3
2019-01-21T22:08:08.153Z,48.2
2019-01-21T22:13:04.894Z,48.3
2019-01-21T22:18:01.315Z,48.3
2019-01-21T22:22:57.948Z,48.2
2019-01-21T22:27:54.049Z,48.2
2019-01-21T22:32:50.841Z,48.3
2019-01-21T22:37:47.265Z,48.3
2019-01-21T22:42:44.085Z,48.3
2019-01-21T22:47:40.624Z,48.3
2019-01-21T22:52:42.274Z,48.3
2019-01-21T22:57:37.951Z,48.2
2019-01-21T23:02:34.159Z,48.3
2019-01-21T23:07:30.778Z,48.2
2019-01-21T23:12:27.411Z,48.2
2019-01-21T23:17:24.336Z,48.3
2019-01-21T23:22:21.111Z,48.3
2019-01-21T23:27:17.532Z,48.3
2019-01-21T23:32:14.507Z,48.3
2019-01-21T23:37:11.092Z,48.3
2019-01-21T23:42:07.684Z,48.3
2019-01-21T23:47:04.483Z,48.2
2019-01-21T23:52:01.309Z,48.4
2019-01-21T23:56:57.854Z,48.3
